createdAt,value
2023-04-16T00:00:38.601Z,5.00
2023-04-16T00:03:05.245Z,5.43
2023-04-16T00:05:31.881Z,5.47
2023-04-16T00:07:58.224Z,4.28
2023-04-16T00:10:24.624Z,6.13
2023-04-16T00:12:50.975Z,4.63
2023-04-16T00:15:17.356Z,5.13
2023-04-16T00:17:43.766Z,5.05
2023-04-16T00:20:11.303Z,5.40
2023-04-16T00:22:37.717Z,5.63
2023-04-16T00:25:04.485Z,4.63
2023-04-16T00:27:30.894Z,5.47
2023-04-16T00:29:57.547Z,5.15
2023-04-16T00:32:24.222Z,5.05
2023-04-16T00:34:50.774Z,5.45
2023-04-16T00:37:18.460Z,5.20
2023-04-16T00:39:44.888Z,5.82
2023-04-16T00:42:11.314Z,5.40
2023-04-16T00:44:37.982Z,5.63
2023-04-16T00:47:04.670Z,5.38
2023-04-16T00:49:31.680Z,6.35
2023-04-16T00:51:59.310Z,5.30
2023-04-16T00:54:26.470Z,5.70
2023-04-16T00:56:53.065Z,5.55
2023-04-16T00:59:20.360Z,5.40
2023-04-16T01:01:46.766Z,6.22
2023-04-16T01:04:14.188Z,5.53
2023-04-16T01:06:42.462Z,6.25
2023-04-16T01:09:11.561Z,5.65
2023-04-16T01:11:38.148Z,5.47
2023-04-16T01:14:04.568Z,6.70
2023-04-16T01:16:32.562Z,5.80
2023-04-16T01:18:58.942Z,5.82
2023-04-16T01:21:25.719Z,5.65
2023-04-16T01:23:52.177Z,6.03
2023-04-16T01:26:18.553Z,6.57
2023-04-16T01:28:45.152Z,6.60
2023-04-16T01:31:11.612Z,6.88
2023-04-16T01:33:50.791Z,6.15
2023-04-16T01:36:17.212Z,6.78
2023-04-16T01:38:45.083Z,6.80
2023-04-16T01:41:11.657Z,7.30
2023-04-16T01:43:39.674Z,7.18
2023-04-16T01:46:23.459Z,6.63
2023-04-16T01:48:49.863Z,6.45
2023-04-16T01:51:18.331Z,7.47
2023-04-16T01:53:44.919Z,7.03
2023-04-16T01:56:11.564Z,6.63
2023-04-16T01:58:38.505Z,6.70
2023-04-16T02:01:05.728Z,7.30
2023-04-16T02:03:33.023Z,6.35
2023-04-16T02:05:59.692Z,8.43
2023-04-16T02:08:28.736Z,7.85
2023-04-16T02:10:56.541Z,6.93
2023-04-16T02:13:25.926Z,7.00
2023-04-16T02:15:52.789Z,7.03
2023-04-16T02:18:38.606Z,7.72
2023-04-16T02:21:06.453Z,6.57
2023-04-16T02:23:33.153Z,6.88
2023-04-16T02:26:00.961Z,7.18
2023-04-16T02:28:27.903Z,7.28
2023-04-16T02:30:54.358Z,7.18
2023-04-16T02:33:21.125Z,8.07
2023-04-16T02:35:55.933Z,7.40
2023-04-16T02:38:22.481Z,8.15
2023-04-16T02:40:48.905Z,8.00
2023-04-16T02:43:16.614Z,7.82
2023-04-16T02:45:43.376Z,6.90
2023-04-16T02:48:09.961Z,7.95
2023-04-16T02:50:36.507Z,8.20
2023-04-16T02:53:04.164Z,8.38
2023-04-16T02:55:30.632Z,9.32
2023-04-16T02:57:57.020Z,9.15
2023-04-16T03:00:23.471Z,7.80
2023-04-16T03:02:50.119Z,8.27
2023-04-16T03:05:16.673Z,8.55
2023-04-16T03:07:43.117Z,9.13
2023-04-16T03:10:10.083Z,8.32
2023-04-16T03:12:36.516Z,8.75
2023-04-16T03:15:06.784Z,8.60
2023-04-16T03:17:33.318Z,7.95
2023-04-16T03:19:59.867Z,8.75
2023-04-16T03:22:26.896Z,8.48
2023-04-16T03:24:53.406Z,7.95
2023-04-16T03:27:19.781Z,7.50
2023-04-16T03:29:46.655Z,8.75
2023-04-16T03:32:13.218Z,8.68
2023-04-16T03:34:40.199Z,8.32
2023-04-16T03:37:06.795Z,8.45
2023-04-16T03:39:34.262Z,8.05
2023-04-16T03:42:01.866Z,8.73
2023-04-16T03:44:28.302Z,8.43
2023-04-16T03:46:55.123Z,8.77
2023-04-16T03:49:21.956Z,8.27
2023-04-16T03:51:48.701Z,7.82
2023-04-16T03:54:15.514Z,7.90
2023-04-16T03:56:46.136Z,7.40
2023-04-16T03:59:12.589Z,8.77
2023-04-16T04:01:38.969Z,9.18
2023-04-16T04:04:06.838Z,8.88
2023-04-16T04:06:33.500Z,10.15
2023-04-16T04:08:59.899Z,9.63
2023-04-16T04:11:26.603Z,9.90
2023-04-16T04:13:53.781Z,9.57
2023-04-16T04:16:20.211Z,9.35
2023-04-16T04:18:46.772Z,10.27
2023-04-16T04:21:13.177Z,8.38
2023-04-16T04:23:41.449Z,8.50
2023-04-16T04:26:08.359Z,9.35
2023-04-16T04:28:35.517Z,9.68
2023-04-16T04:31:02.213Z,9.75
2023-04-16T04:33:30.439Z,8.20
2023-04-16T04:35:57.064Z,8.80
2023-04-16T04:38:25.298Z,9.43
2023-04-16T04:40:52.940Z,8.18
2023-04-16T04:43:21.079Z,9.13
2023-04-16T04:45:49.060Z,7.95
2023-04-16T04:48:16.038Z,7.57
2023-04-16T04:50:42.751Z,7.18
2023-04-16T04:53:12.023Z,8.43
2023-04-16T04:55:39.420Z,9.15
2023-04-16T04:58:06.714Z,9.50
2023-04-16T05:00:36.822Z,9.23
2023-04-16T05:03:05.930Z,8.48
2023-04-16T05:05:32.500Z,7.78
2023-04-16T05:07:58.919Z,8.52
2023-04-16T05:10:25.434Z,8.50
2023-04-16T05:12:51.911Z,8.70
2023-04-16T05:15:18.391Z,8.90
2023-04-16T05:17:44.909Z,8.88
2023-04-16T05:20:11.429Z,8.00
2023-04-16T05:22:37.886Z,8.55
2023-04-16T05:25:04.689Z,9.43
2023-04-16T05:27:31.082Z,9.07
2023-04-16T05:29:57.477Z,9.20
2023-04-16T05:32:26.164Z,8.55
2023-04-16T05:34:52.584Z,8.77
2023-04-16T05:37:18.990Z,9.05
2023-04-16T05:39:45.664Z,9.75
2023-04-16T05:42:12.047Z,8.93
2023-04-16T05:44:38.413Z,9.38
2023-04-16T05:47:04.846Z,10.18
2023-04-16T05:49:31.216Z,10.02
2023-04-16T05:51:57.670Z,8.90
2023-04-16T05:54:24.213Z,9.82
2023-04-16T05:56:50.766Z,10.13
2023-04-16T05:59:17.138Z,10.60
2023-04-16T06:01:43.542Z,10.68
2023-04-16T06:04:10.043Z,10.38
2023-04-16T06:06:37.415Z,9.90
2023-04-16T06:09:04.105Z,9.70
2023-04-16T06:11:30.625Z,11.20
2023-04-16T06:13:56.966Z,10.10
2023-04-16T06:16:23.433Z,10.52
2023-04-16T06:18:49.857Z,9.77
2023-04-16T06:21:16.472Z,10.20
2023-04-16T06:23:42.876Z,10.63
2023-04-16T06:26:09.314Z,10.95
2023-04-16T06:28:35.709Z,10.18
2023-04-16T06:31:02.286Z,10.13
2023-04-16T06:33:28.676Z,9.45
2023-04-16T06:35:55.171Z,9.65
2023-04-16T06:38:21.552Z,10.80
2023-04-16T06:40:48.548Z,10.15
2023-04-16T06:43:15.828Z,11.23
2023-04-16T06:45:42.253Z,9.35
2023-04-16T06:48:08.595Z,10.25
2023-04-16T06:50:35.172Z,10.45
2023-04-16T06:53:01.728Z,9.85
2023-04-16T06:55:28.120Z,10.45
2023-04-16T06:57:54.494Z,9.05
2023-04-16T07:00:21.006Z,10.60
2023-04-16T07:02:47.614Z,10.65
2023-04-16T07:05:14.149Z,12.20
2023-04-16T07:07:40.574Z,10.00
2023-04-16T07:10:08.200Z,9.45
2023-04-16T07:12:34.660Z,10.10
2023-04-16T07:15:01.073Z,7.80
2023-04-16T07:17:27.601Z,7.55
2023-04-16T07:19:54.038Z,8.65
2023-04-16T07:22:21.482Z,8.15
2023-04-16T07:24:47.851Z,8.38
2023-04-16T07:27:14.242Z,7.85
2023-04-16T07:29:41.081Z,8.50
2023-04-16T07:32:08.081Z,8.05
2023-04-16T07:34:34.531Z,8.63
2023-04-16T07:37:01.012Z,8.27
2023-04-16T07:39:27.374Z,10.38
2023-04-16T07:41:53.759Z,8.00
2023-04-16T07:44:20.169Z,7.60
2023-04-16T07:46:47.687Z,7.53
2023-04-16T07:49:14.968Z,7.30
2023-04-16T07:51:41.466Z,7.55
2023-04-16T07:54:07.975Z,7.80
2023-04-16T07:56:34.452Z,8.55
2023-04-16T07:59:18.456Z,8.88
2023-04-16T08:01:47.282Z,9.05
2023-04-16T08:04:14.270Z,7.95
2023-04-16T08:06:40.844Z,8.32
2023-04-16T08:09:07.395Z,8.52
2023-04-16T08:11:34.154Z,8.13
2023-04-16T08:14:00.485Z,8.48
2023-04-16T08:16:26.922Z,8.43
2023-04-16T08:18:53.297Z,8.35
2023-04-16T08:21:19.701Z,8.55
2023-04-16T08:23:46.228Z,8.68
2023-04-16T08:26:13.816Z,8.73
2023-04-16T08:28:40.232Z,8.05
2023-04-16T08:31:06.654Z,8.82
2023-04-16T08:33:33.056Z,11.18
2023-04-16T08:35:59.418Z,7.95
2023-04-16T08:38:26.271Z,8.10
2023-04-16T08:40:54.945Z,8.52
2023-04-16T08:43:23.940Z,8.85
2023-04-16T08:45:51.227Z,10.35
2023-04-16T08:48:21.377Z,9.73
2023-04-16T08:50:52.287Z,9.57
2023-04-16T08:53:27.311Z,8.77
2023-04-16T08:55:59.583Z,10.02
2023-04-16T08:58:31.741Z,7.00
2023-04-16T09:00:58.926Z,10.00
2023-04-16T09:03:25.624Z,9.55
2023-04-16T09:05:53.315Z,10.27
2023-04-16T09:08:20.143Z,9.88
2023-04-16T09:10:46.868Z,8.82
2023-04-16T09:13:15.674Z,9.90
2023-04-16T09:15:42.996Z,10.55
2023-04-16T09:18:11.907Z,10.00
2023-04-16T09:20:39.379Z,10.15
2023-04-16T09:23:05.854Z,10.05
2023-04-16T09:25:35.631Z,10.13
2023-04-16T09:28:02.163Z,9.98
2023-04-16T09:30:28.785Z,9.80
2023-04-16T09:33:22.075Z,10.68
2023-04-16T09:35:50.689Z,9.77
2023-04-16T09:38:17.364Z,9.90
2023-04-16T09:40:43.976Z,10.73
2023-04-16T09:43:12.685Z,10.15
2023-04-16T09:45:52.589Z,10.85
2023-04-16T09:48:30.000Z,10.57
2023-04-16T09:50:56.704Z,10.82
2023-04-16T09:53:30.589Z,11.27
2023-04-16T09:55:58.419Z,9.80
2023-04-16T09:58:25.205Z,10.55
2023-04-16T10:01:01.449Z,10.38
2023-04-16T10:03:32.480Z,9.00
2023-04-16T10:06:20.150Z,10.90
2023-04-16T10:08:58.421Z,9.40
2023-04-16T10:11:25.102Z,9.32
2023-04-16T10:13:51.898Z,10.40
2023-04-16T10:16:18.702Z,9.95
2023-04-16T10:18:46.751Z,9.70
2023-04-16T10:21:13.828Z,10.82
2023-04-16T10:23:40.691Z,10.68
2023-04-16T10:26:07.225Z,10.63
2023-04-16T10:28:35.303Z,9.90
2023-04-16T10:31:04.223Z,9.55
2023-04-16T10:33:33.297Z,9.75
2023-04-16T10:36:16.897Z,8.77
2023-04-16T10:38:49.353Z,10.48
2023-04-16T10:41:16.146Z,10.05
2023-04-16T10:43:47.482Z,9.23
2023-04-16T10:46:21.110Z,10.18
2023-04-16T10:48:50.801Z,10.20
2023-04-16T10:51:32.133Z,10.73
2023-04-16T10:54:04.250Z,10.02
2023-04-16T10:56:34.976Z,11.97
2023-04-16T10:59:04.122Z,10.68
2023-04-16T11:01:36.426Z,11.65
2023-04-16T11:04:26.935Z,12.30
2023-04-16T11:07:13.789Z,11.43
2023-04-16T11:10:00.216Z,12.73
2023-04-16T11:12:46.256Z,13.45
2023-04-16T11:15:15.161Z,12.27
2023-04-16T11:17:44.109Z,11.38
2023-04-16T11:20:30.982Z,13.52
2023-04-16T11:22:58.037Z,12.25
2023-04-16T11:25:31.368Z,12.85
2023-04-16T11:28:01.214Z,13.05
2023-04-16T11:30:29.775Z,12.40
2023-04-16T11:32:56.451Z,13.27
2023-04-16T11:35:23.025Z,12.73
2023-04-16T11:37:49.597Z,12.70
2023-04-16T11:40:16.023Z,14.07
2023-04-16T11:42:42.774Z,13.52
2023-04-16T11:45:11.177Z,13.52
2023-04-16T11:47:52.263Z,14.05
2023-04-16T11:50:27.117Z,13.32
2023-04-16T11:52:56.248Z,13.00
2023-04-16T11:55:23.853Z,14.63
2023-04-16T11:57:50.909Z,12.95
2023-04-16T12:00:19.280Z,12.32
2023-04-16T12:02:52.557Z,14.30
2023-04-16T12:05:37.120Z,12.93
2023-04-16T12:08:08.247Z,14.00
2023-04-16T12:10:37.383Z,13.93
2023-04-16T12:13:17.111Z,13.90
2023-04-16T12:15:57.045Z,15.57
2023-04-16T12:18:28.213Z,14.90
2023-04-16T12:20:54.800Z,13.88
2023-04-16T12:23:34.212Z,15.70
2023-04-16T12:26:10.310Z,14.27
2023-04-16T12:28:41.526Z,59.25
2023-04-16T12:31:08.212Z,16.73
2023-04-16T12:33:34.728Z,15.63
2023-04-16T12:36:01.917Z,16.77
2023-04-16T12:38:29.135Z,16.27
2023-04-16T12:40:57.138Z,14.82
2023-04-16T12:43:24.125Z,15.23
2023-04-16T12:45:50.579Z,15.93
2023-04-16T12:48:17.111Z,14.35
2023-04-16T12:50:44.182Z,15.23
2023-04-16T12:53:11.344Z,15.77
2023-04-16T12:55:37.819Z,15.48
2023-04-16T12:58:04.293Z,14.57
2023-04-16T13:00:30.700Z,14.43
2023-04-16T13:02:57.251Z,16.00
2023-04-16T13:05:23.796Z,15.35
2023-04-16T13:07:50.208Z,14.35
2023-04-16T13:10:17.239Z,14.93
2023-04-16T13:12:43.638Z,14.43
2023-04-16T13:15:10.516Z,15.05
2023-04-16T13:17:36.957Z,14.07
2023-04-16T13:20:03.582Z,14.45
2023-04-16T13:22:30.254Z,13.32
2023-04-16T13:24:56.971Z,13.02
2023-04-16T13:27:23.382Z,12.95
2023-04-16T13:29:49.796Z,13.95
2023-04-16T13:32:16.526Z,13.93
2023-04-16T13:34:42.960Z,12.63
2023-04-16T13:37:09.358Z,13.30
2023-04-16T13:39:35.882Z,13.90
2023-04-16T13:42:02.589Z,12.15
2023-04-16T13:44:29.014Z,11.15
2023-04-16T13:46:56.021Z,12.88
2023-04-16T13:49:23.302Z,11.68
2023-04-16T13:51:49.750Z,11.77
2023-04-16T13:54:16.114Z,13.07
2023-04-16T13:56:42.537Z,11.63
2023-04-16T13:59:09.219Z,11.10
2023-04-16T14:01:35.828Z,11.90
2023-04-16T14:04:06.859Z,10.82
2023-04-16T14:06:34.376Z,11.15
2023-04-16T14:09:01.322Z,12.23
2023-04-16T14:11:27.964Z,12.93
2023-04-16T14:13:54.768Z,12.25
2023-04-16T14:16:21.337Z,12.05
2023-04-16T14:18:47.788Z,11.90
2023-04-16T14:21:14.166Z,16.00
2023-04-16T14:23:41.024Z,10.48
2023-04-16T14:26:07.465Z,11.10
2023-04-16T14:28:34.118Z,9.65
2023-04-16T14:31:00.476Z,10.18
2023-04-16T14:33:27.617Z,9.13
2023-04-16T14:35:54.708Z,9.95
2023-04-16T14:38:21.207Z,9.13
2023-04-16T14:40:48.252Z,9.38
2023-04-16T14:43:14.831Z,9.25
2023-04-16T14:45:41.681Z,8.73
2023-04-16T14:48:08.167Z,7.95
2023-04-16T14:50:38.874Z,8.57
2023-04-16T14:53:05.809Z,8.40
2023-04-16T14:55:32.641Z,7.93
2023-04-16T14:57:59.631Z,12.43
2023-04-16T15:00:26.329Z,12.27
2023-04-16T15:02:54.110Z,11.23
2023-04-16T15:05:20.744Z,10.57
2023-04-16T15:07:47.337Z,12.63
2023-04-16T15:10:13.930Z,10.82
2023-04-16T15:12:40.625Z,11.07
2023-04-16T15:15:08.460Z,11.18
2023-04-16T15:17:35.349Z,10.27
2023-04-16T15:20:01.947Z,10.85
2023-04-16T15:22:28.358Z,12.02
2023-04-16T15:24:54.740Z,12.20
2023-04-16T15:27:21.101Z,10.77
2023-04-16T15:29:49.230Z,10.82
2023-04-16T15:32:15.691Z,11.05
2023-04-16T15:34:42.341Z,11.13
2023-04-16T15:37:09.563Z,10.38
2023-04-16T15:39:36.023Z,11.70
2023-04-16T15:42:07.031Z,10.77
2023-04-16T15:44:34.182Z,11.18
2023-04-16T15:47:01.016Z,11.40
2023-04-16T15:49:27.531Z,11.80
2023-04-16T15:51:54.232Z,10.73
2023-04-16T15:54:20.667Z,12.30
2023-04-16T15:56:47.172Z,10.25
2023-04-16T15:59:13.772Z,12.13
2023-04-16T16:01:40.754Z,11.30
2023-04-16T16:04:08.102Z,11.70
2023-04-16T16:06:35.577Z,10.88
2023-04-16T16:09:02.019Z,9.10
2023-04-16T16:11:28.501Z,7.95
2023-04-16T16:13:55.163Z,7.43
2023-04-16T16:16:21.890Z,8.15
2023-04-16T16:18:48.636Z,8.98
2023-04-16T16:21:15.056Z,9.52
2023-04-16T16:23:41.437Z,6.90
2023-04-16T16:26:07.904Z,7.75
2023-04-16T16:28:37.434Z,6.20
2023-04-16T16:31:05.683Z,7.00
2023-04-16T16:33:32.128Z,6.53
2023-04-16T16:35:58.550Z,7.07
2023-04-16T16:38:24.949Z,7.57
2023-04-16T16:40:51.324Z,6.60
2023-04-16T16:43:17.748Z,6.57
2023-04-16T16:45:44.263Z,6.97
2023-04-16T16:48:10.655Z,6.30
2023-04-16T16:50:37.048Z,8.07
2023-04-16T16:53:03.640Z,7.43
2023-04-16T16:55:31.174Z,7.53
2023-04-16T16:57:58.340Z,7.63
2023-04-16T17:00:24.823Z,7.45
2023-04-16T17:02:51.962Z,8.05
2023-04-16T17:05:18.769Z,8.10
2023-04-16T17:07:45.714Z,7.88
2023-04-16T17:10:19.689Z,7.97
2023-04-16T17:12:47.947Z,8.25
2023-04-16T17:15:14.925Z,9.63
2023-04-16T17:17:41.853Z,9.55
2023-04-16T17:20:10.562Z,9.07
2023-04-16T17:22:37.897Z,9.98
2023-04-16T17:25:04.905Z,11.13
2023-04-16T17:27:34.682Z,9.43
2023-04-16T17:30:02.173Z,9.68
2023-04-16T17:32:29.493Z,9.85
2023-04-16T17:34:56.515Z,8.57
2023-04-16T17:37:23.344Z,9.40
2023-04-16T17:39:50.002Z,9.45
2023-04-16T17:42:16.683Z,9.98
2023-04-16T17:44:43.132Z,9.55
2023-04-16T17:47:09.531Z,9.57
2023-04-16T17:49:35.994Z,8.80
2023-04-16T17:52:02.381Z,9.48
2023-04-16T17:54:28.756Z,9.48
2023-04-16T17:56:55.183Z,9.05
2023-04-16T17:59:21.748Z,9.50
2023-04-16T18:01:49.509Z,9.02
2023-04-16T18:04:16.382Z,9.77
2023-04-16T18:06:43.168Z,8.55
2023-04-16T18:09:09.542Z,9.75
2023-04-16T18:11:36.135Z,9.38
2023-04-16T18:14:02.530Z,10.18
2023-04-16T18:16:29.029Z,9.43
2023-04-16T18:18:55.444Z,9.95
2023-04-16T18:21:21.928Z,9.43
2023-04-16T18:23:48.306Z,9.68
2023-04-16T18:26:18.334Z,9.90
2023-04-16T18:28:47.207Z,9.80
2023-04-16T18:31:13.803Z,9.73
2023-04-16T18:33:55.768Z,9.07
2023-04-16T18:39:00.807Z,9.18
2023-04-16T18:41:27.936Z,9.60
2023-04-16T18:43:54.436Z,10.55
2023-04-16T18:46:20.961Z,10.00
2023-04-16T18:48:47.352Z,11.15
2023-04-16T18:51:16.055Z,10.52
2023-04-16T18:53:44.156Z,10.15
2023-04-16T18:56:11.007Z,10.65
2023-04-16T18:58:37.860Z,11.82
2023-04-16T19:01:04.809Z,9.90
2023-04-16T19:03:31.829Z,10.02
2023-04-16T19:05:58.269Z,12.65
2023-04-16T19:08:24.721Z,11.57
2023-04-16T19:10:51.201Z,11.27
2023-04-16T19:13:17.612Z,11.50
2023-04-16T19:15:44.002Z,11.30
2023-04-16T19:18:10.412Z,11.65
2023-04-16T19:20:37.433Z,12.80
2023-04-16T19:23:05.546Z,10.80
2023-04-16T19:25:32.421Z,13.60
2023-04-16T19:27:58.827Z,11.98
2023-04-16T19:30:25.397Z,10.93
2023-04-16T19:32:54.534Z,10.32
2023-04-16T19:35:21.781Z,9.93
2023-04-16T19:37:48.201Z,10.57
2023-04-16T19:40:14.571Z,9.73
2023-04-16T19:42:41.242Z,10.93
2023-04-16T19:45:07.972Z,10.95
2023-04-16T19:47:34.401Z,11.10
2023-04-16T19:50:00.839Z,10.05
2023-04-16T19:52:27.313Z,10.48
2023-04-16T19:54:53.735Z,10.73
2023-04-16T19:57:20.255Z,11.35
2023-04-16T19:59:46.639Z,10.52
2023-04-16T20:02:13.049Z,9.75
2023-04-16T20:04:39.496Z,9.18
2023-04-16T20:07:05.883Z,9.00
2023-04-16T20:09:32.323Z,9.80
2023-04-16T20:11:58.862Z,10.48
2023-04-16T20:14:25.514Z,10.63
2023-04-16T20:16:52.047Z,11.00
2023-04-16T20:19:19.423Z,10.85
2023-04-16T20:21:46.013Z,11.30
2023-04-16T20:24:12.518Z,11.07
2023-04-16T20:26:38.927Z,12.00
2023-04-16T20:29:05.297Z,11.25
2023-04-16T20:31:31.715Z,14.15
2023-04-16T20:33:58.116Z,10.88
2023-04-16T20:36:24.508Z,11.32
2023-04-16T20:38:53.815Z,11.55
2023-04-16T20:41:21.220Z,10.27
2023-04-16T20:43:50.088Z,11.40
2023-04-16T20:46:17.434Z,11.77
2023-04-16T20:48:44.169Z,12.23
2023-04-16T20:51:10.571Z,11.93
2023-04-16T20:53:37.002Z,12.20
2023-04-16T20:56:03.426Z,12.30
2023-04-16T20:58:30.138Z,13.10
2023-04-16T21:00:57.472Z,12.15
2023-04-16T21:03:24.660Z,13.05
2023-04-16T21:05:55.053Z,11.45
2023-04-16T21:08:22.362Z,12.63
2023-04-16T21:10:48.801Z,12.15
2023-04-16T21:13:15.574Z,10.30
2023-04-16T21:15:44.188Z,11.75
2023-04-16T21:18:11.199Z,11.57
2023-04-16T21:20:38.780Z,11.20
2023-04-16T21:23:05.814Z,11.38
2023-04-16T21:25:33.348Z,10.82
2023-04-16T21:27:59.854Z,10.82
2023-04-16T21:30:26.357Z,12.23
2023-04-16T21:32:52.813Z,11.13
2023-04-16T21:35:19.363Z,9.40
2023-04-16T21:37:54.379Z,9.85
2023-04-16T21:40:20.865Z,10.90
2023-04-16T21:42:47.291Z,9.90
2023-04-16T21:45:14.436Z,10.70
2023-04-16T21:47:41.029Z,10.13
2023-04-16T21:50:08.184Z,10.63
2023-04-16T21:52:39.992Z,10.57
2023-04-16T21:55:08.795Z,10.10
2023-04-16T21:57:35.215Z,9.65
2023-04-16T22:00:01.709Z,10.00
2023-04-16T22:02:30.842Z,10.50
2023-04-16T22:04:57.312Z,10.15
2023-04-16T22:07:23.675Z,9.73
2023-04-16T22:09:50.775Z,10.40
2023-04-16T22:12:17.165Z,11.07
2023-04-16T22:14:52.293Z,10.32
2023-04-16T22:17:28.911Z,9.90
2023-04-16T22:19:55.316Z,11.57
2023-04-16T22:22:22.012Z,10.82
2023-04-16T22:24:48.639Z,11.77
2023-04-16T22:27:15.082Z,10.75
2023-04-16T22:29:41.631Z,12.20
2023-04-16T22:32:08.243Z,11.25
2023-04-16T22:34:34.685Z,10.65
2023-04-16T22:37:02.850Z,11.73
2023-04-16T22:39:30.783Z,11.63
2023-04-16T22:41:57.266Z,13.45
2023-04-16T22:44:23.638Z,13.30
2023-04-16T22:46:50.044Z,12.73
2023-04-16T22:49:16.490Z,10.63
2023-04-16T22:51:43.327Z,12.73
2023-04-16T22:54:13.631Z,12.18
2023-04-16T22:56:40.780Z,10.90
2023-04-16T22:59:07.549Z,12.32
2023-04-16T23:01:34.908Z,13.20
2023-04-16T23:04:01.465Z,11.57
2023-04-16T23:06:27.928Z,11.63
2023-04-16T23:08:54.316Z,12.73
2023-04-16T23:11:20.782Z,12.95
2023-04-16T23:13:47.162Z,12.57
2023-04-16T23:16:13.604Z,12.02
2023-04-16T23:18:40.194Z,12.02
2023-04-16T23:21:06.560Z,11.50
2023-04-16T23:23:33.231Z,11.30
2023-04-16T23:26:00.842Z,13.45
2023-04-16T23:28:27.238Z,11.40
2023-04-16T23:30:53.769Z,14.73
2023-04-16T23:33:20.307Z,14.50
2023-04-16T23:35:47.317Z,14.70
2023-04-16T23:38:13.793Z,14.63
2023-04-16T23:40:40.272Z,14.65
2023-04-16T23:43:06.649Z,15.68
2023-04-16T23:45:33.063Z,15.65
2023-04-16T23:47:59.502Z,16.13
2023-04-16T23:50:26.053Z,15.63
2023-04-16T23:52:52.503Z,15.50
2023-04-16T23:55:19.077Z,15.45
2023-04-16T23:57:45.536Z,16.77
